createdAt,value
2023-07-19T00:00:26.705Z,73.85
2023-07-19T00:02:54.864Z,73.92
2023-07-19T00:05:23.140Z,73.81
2023-07-19T00:07:51.280Z,73.89
2023-07-19T00:10:20.018Z,74.13
2023-07-19T00:12:56.279Z,74.07
2023-07-19T00:15:27.692Z,74.20
2023-07-19T00:17:56.002Z,74.51
2023-07-19T00:20:24.288Z,74.64
2023-07-19T00:22:52.477Z,74.68
2023-07-19T00:25:20.886Z,74.62
2023-07-19T00:27:50.039Z,74.50
2023-07-19T00:30:21.630Z,74.60
2023-07-19T00:32:51.183Z,74.59
2023-07-19T00:35:19.859Z,74.46
2023-07-19T00:37:48.248Z,74.49
2023-07-19T00:40:16.716Z,74.38
2023-07-19T00:42:44.802Z,74.46
2023-07-19T00:45:14.166Z,74.64
2023-07-19T00:47:42.542Z,74.82
2023-07-19T00:50:12.404Z,74.95
2023-07-19T00:52:41.906Z,75.19
2023-07-19T00:55:11.232Z,75.55
2023-07-19T00:57:40.134Z,75.22
2023-07-19T01:00:10.016Z,75.18
2023-07-19T01:02:39.025Z,75.35
2023-07-19T01:05:08.305Z,75.58
2023-07-19T01:07:38.799Z,75.25
2023-07-19T01:10:08.392Z,75.38
2023-07-19T01:12:36.587Z,75.68
2023-07-19T01:15:10.187Z,75.35
2023-07-19T01:17:38.863Z,75.23
2023-07-19T01:20:09.807Z,75.31
2023-07-19T01:22:39.868Z,75.41
2023-07-19T01:25:08.700Z,75.59
2023-07-19T01:27:36.847Z,75.41
2023-07-19T01:30:05.691Z,75.38
2023-07-19T01:32:33.966Z,75.43
2023-07-19T01:35:02.257Z,75.32
2023-07-19T01:37:31.741Z,75.24
2023-07-19T01:40:03.008Z,74.80
2023-07-19T01:42:33.721Z,74.63
2023-07-19T01:45:02.449Z,74.60
2023-07-19T01:47:31.179Z,74.53
2023-07-19T01:49:59.321Z,74.59
2023-07-19T01:52:27.656Z,74.03
2023-07-19T01:54:55.813Z,74.06
2023-07-19T01:57:26.836Z,73.52
2023-07-19T01:59:55.418Z,73.75
2023-07-19T02:02:23.956Z,73.63
2023-07-19T02:04:52.601Z,73.65
2023-07-19T02:07:21.329Z,73.52
2023-07-19T02:09:49.709Z,73.86
2023-07-19T02:12:18.474Z,73.92
2023-07-19T02:14:48.226Z,73.93
2023-07-19T02:17:16.948Z,74.16
2023-07-19T02:19:45.167Z,74.12
2023-07-19T02:22:13.535Z,74.14
2023-07-19T02:24:41.683Z,74.41
2023-07-19T02:27:10.056Z,74.49
2023-07-19T02:29:39.349Z,74.49
2023-07-19T02:32:09.959Z,74.38
2023-07-19T02:34:40.326Z,74.46
2023-07-19T02:37:08.474Z,74.72
2023-07-19T02:39:36.641Z,74.71
2023-07-19T02:42:07.461Z,75.33
2023-07-19T02:44:35.861Z,75.02
2023-07-19T02:47:04.062Z,75.42
2023-07-19T02:49:36.655Z,75.54
2023-07-19T02:52:05.829Z,76.06
2023-07-19T02:54:33.987Z,75.93
2023-07-19T02:57:02.280Z,75.95
2023-07-19T02:59:30.518Z,75.79
2023-07-19T03:01:59.009Z,75.78
2023-07-19T03:04:27.472Z,75.99
2023-07-19T03:06:58.717Z,76.27
2023-07-19T03:09:27.407Z,76.25
2023-07-19T03:11:55.610Z,76.17
2023-07-19T03:14:24.684Z,76.46
2023-07-19T03:16:52.946Z,76.65
2023-07-19T03:19:21.161Z,76.59
2023-07-19T03:21:49.603Z,76.43
2023-07-19T03:24:19.493Z,76.24
2023-07-19T03:26:47.931Z,76.39
2023-07-19T03:29:16.162Z,76.49
2023-07-19T03:31:44.752Z,76.38
2023-07-19T03:34:13.243Z,76.43
2023-07-19T03:36:41.732Z,76.33
2023-07-19T03:39:10.728Z,76.24
2023-07-19T03:41:40.537Z,76.35
2023-07-19T03:44:09.413Z,76.32
2023-07-19T03:46:38.301Z,76.31
2023-07-19T03:49:06.812Z,76.45
2023-07-19T03:51:35.122Z,76.47
2023-07-19T03:54:05.080Z,76.60
2023-07-19T03:56:33.481Z,76.71
2023-07-19T03:59:03.701Z,76.83
2023-07-19T04:01:32.506Z,76.92
2023-07-19T04:04:00.917Z,77.36
2023-07-19T04:06:29.136Z,77.26
2023-07-19T04:08:57.691Z,77.47
2023-07-19T04:11:25.901Z,77.75
2023-07-19T04:13:54.424Z,77.71
2023-07-19T04:16:24.286Z,77.64
2023-07-19T04:18:53.077Z,77.37
2023-07-19T04:21:21.695Z,77.56
2023-07-19T04:23:51.038Z,77.53
2023-07-19T04:26:19.728Z,77.64
2023-07-19T04:28:48.645Z,77.59
2023-07-19T04:31:16.893Z,77.61
2023-07-19T04:33:47.292Z,77.59
2023-07-19T04:36:17.598Z,77.76
2023-07-19T04:38:48.416Z,77.77
2023-07-19T04:41:16.623Z,77.64
2023-07-19T04:43:44.770Z,77.56
2023-07-19T04:46:14.430Z,77.45
2023-07-19T04:48:42.742Z,77.49
2023-07-19T04:51:12.269Z,77.44
2023-07-19T04:53:40.392Z,77.08
2023-07-19T04:56:08.739Z,77.15
2023-07-19T04:58:37.105Z,77.26
2023-07-19T05:01:09.767Z,77.15
2023-07-19T05:03:39.392Z,76.78
2023-07-19T05:06:07.598Z,76.79
2023-07-19T05:08:38.803Z,76.60
2023-07-19T05:11:07.533Z,76.79
2023-07-19T05:13:36.129Z,76.58
2023-07-19T05:16:04.797Z,76.49
2023-07-19T05:18:33.884Z,76.06
2023-07-19T05:21:02.738Z,76.14
2023-07-19T05:23:31.314Z,76.00
2023-07-19T05:26:00.989Z,75.83
2023-07-19T05:28:29.167Z,75.86
2023-07-19T05:31:03.517Z,75.45
2023-07-19T05:33:32.018Z,75.58
2023-07-19T05:36:00.434Z,75.34
2023-07-19T05:38:29.364Z,75.31
2023-07-19T05:41:02.834Z,75.31
2023-07-19T05:43:31.257Z,75.00
2023-07-19T05:46:05.328Z,74.75
2023-07-19T05:48:34.137Z,74.67
2023-07-19T05:51:02.766Z,74.48
2023-07-19T05:53:31.040Z,74.26
2023-07-19T05:55:59.182Z,74.16
2023-07-19T05:58:29.931Z,73.83
2023-07-19T06:00:58.988Z,74.06
2023-07-19T06:03:28.027Z,73.97
2023-07-19T06:05:56.525Z,73.72
2023-07-19T06:08:25.882Z,73.57
2023-07-19T06:10:54.727Z,73.31
2023-07-19T06:13:23.202Z,73.15
2023-07-19T06:15:53.011Z,73.21
2023-07-19T06:18:21.108Z,73.23
2023-07-19T06:20:49.480Z,73.04
2023-07-19T06:23:17.999Z,72.88
2023-07-19T06:25:48.962Z,72.73
2023-07-19T06:28:17.691Z,72.75
2023-07-19T06:30:45.932Z,72.60
2023-07-19T06:33:15.820Z,73.06
2023-07-19T06:35:44.104Z,72.92
2023-07-19T06:38:12.224Z,72.60
2023-07-19T06:40:40.579Z,72.84
2023-07-19T06:43:10.557Z,72.78
2023-07-19T06:45:38.838Z,72.74
2023-07-19T06:48:07.661Z,72.66
2023-07-19T06:50:37.287Z,72.69
2023-07-19T06:53:05.573Z,72.47
2023-07-19T06:55:33.811Z,72.16
2023-07-19T06:58:02.089Z,72.01
2023-07-19T07:00:30.767Z,71.75
2023-07-19T07:02:59.271Z,71.44
2023-07-19T07:05:27.471Z,71.06
2023-07-19T07:07:57.273Z,71.13
2023-07-19T07:10:25.663Z,70.61
2023-07-19T07:12:53.771Z,69.38
2023-07-19T07:15:22.003Z,69.35
2023-07-19T07:17:50.326Z,68.45
2023-07-19T07:20:18.739Z,67.54
2023-07-19T07:22:47.064Z,66.34
2023-07-19T07:25:17.308Z,65.92
2023-07-19T07:27:45.920Z,65.57
2023-07-19T07:30:14.311Z,65.34
2023-07-19T07:32:43.642Z,65.28
2023-07-19T07:35:11.912Z,64.82
2023-07-19T07:37:41.203Z,64.90
2023-07-19T07:40:12.488Z,65.26
2023-07-19T07:42:42.680Z,66.04
2023-07-19T07:45:12.404Z,66.19
2023-07-19T07:47:40.715Z,66.38
2023-07-19T07:50:11.770Z,66.19
2023-07-19T07:52:40.603Z,66.02
2023-07-19T07:55:09.701Z,65.02
2023-07-19T07:57:39.207Z,65.31
2023-07-19T08:00:12.352Z,63.90
2023-07-19T08:02:40.701Z,63.95
2023-07-19T08:05:10.552Z,62.08
2023-07-19T08:07:38.792Z,60.56
2023-07-19T08:10:07.566Z,60.38
2023-07-19T08:12:36.101Z,59.81
2023-07-19T08:15:04.728Z,58.57
2023-07-19T08:17:34.503Z,57.50
2023-07-19T08:20:02.767Z,55.24
2023-07-19T08:22:34.882Z,56.90
2023-07-19T08:25:15.898Z,55.00
2023-07-19T08:27:49.496Z,52.89
2023-07-19T08:30:17.667Z,53.10
2023-07-19T08:32:48.576Z,53.17
2023-07-19T08:35:17.442Z,54.24
2023-07-19T08:37:46.901Z,55.29
2023-07-19T08:40:16.325Z,52.15
2023-07-19T08:42:45.302Z,52.44
2023-07-19T08:45:15.550Z,52.25
2023-07-19T08:47:44.223Z,51.27
2023-07-19T08:50:14.889Z,52.38
2023-07-19T08:52:43.539Z,51.67
2023-07-19T08:55:12.039Z,52.12
2023-07-19T08:57:42.492Z,52.27
2023-07-19T09:00:11.531Z,51.64
2023-07-19T09:02:39.922Z,51.09
2023-07-19T09:05:09.888Z,50.63
2023-07-19T09:07:40.948Z,51.53
2023-07-19T09:10:11.128Z,48.95
2023-07-19T09:12:40.804Z,47.11
2023-07-19T09:15:10.467Z,45.01
2023-07-19T09:17:42.066Z,43.29
2023-07-19T09:20:11.617Z,43.75
2023-07-19T09:22:42.410Z,42.46
2023-07-19T09:25:12.780Z,43.58
2023-07-19T09:27:44.653Z,42.45
2023-07-19T09:30:13.908Z,43.54
2023-07-19T09:32:43.132Z,43.28
2023-07-19T09:35:11.779Z,43.12
2023-07-19T09:37:41.493Z,42.99
2023-07-19T09:40:10.284Z,43.79
2023-07-19T09:42:40.498Z,42.82
2023-07-19T09:45:10.737Z,43.40
2023-07-19T09:47:39.001Z,42.13
2023-07-19T09:50:10.111Z,41.23
2023-07-19T09:52:39.917Z,40.65
2023-07-19T09:55:10.112Z,40.66
2023-07-19T09:57:43.770Z,40.22
2023-07-19T10:00:13.224Z,41.37
2023-07-19T10:02:41.324Z,42.08
2023-07-19T10:05:10.537Z,43.67
2023-07-19T10:07:50.015Z,42.94
2023-07-19T10:10:22.303Z,43.52
2023-07-19T10:12:51.498Z,42.81
2023-07-19T10:15:22.897Z,42.24
2023-07-19T10:18:00.427Z,42.98
2023-07-19T10:20:31.975Z,42.97
2023-07-19T10:23:02.184Z,43.54
2023-07-19T10:25:35.288Z,43.22
2023-07-19T10:28:06.712Z,42.42
2023-07-19T10:30:51.768Z,43.49
2023-07-19T10:33:21.703Z,44.36
2023-07-19T10:35:52.405Z,44.39
2023-07-19T10:38:24.053Z,45.14
2023-07-19T10:41:00.962Z,45.98
2023-07-19T10:43:47.051Z,45.49
2023-07-19T10:46:33.126Z,45.27
2023-07-19T10:49:01.560Z,45.90
2023-07-19T10:51:30.189Z,46.32
2023-07-19T10:54:00.616Z,46.14
2023-07-19T10:56:30.845Z,46.67
2023-07-19T10:59:02.973Z,47.48
2023-07-19T11:01:32.645Z,46.70
2023-07-19T11:04:05.106Z,45.62
2023-07-19T11:06:33.997Z,47.03
2023-07-19T11:09:06.165Z,47.05
2023-07-19T11:11:37.946Z,45.47
2023-07-19T11:14:06.582Z,44.89
2023-07-19T11:16:35.897Z,45.12
2023-07-19T11:19:04.237Z,43.66
2023-07-19T11:21:32.462Z,43.46
2023-07-19T11:24:02.479Z,43.80
2023-07-19T11:26:30.621Z,43.33
2023-07-19T11:29:01.055Z,44.03
2023-07-19T11:31:31.308Z,44.19
2023-07-19T11:34:02.086Z,43.20
2023-07-19T11:36:30.505Z,44.12
2023-07-19T11:38:58.613Z,43.79
2023-07-19T11:41:27.039Z,43.58
2023-07-19T11:43:55.208Z,43.19
2023-07-19T11:46:25.173Z,43.77
2023-07-19T11:48:53.683Z,43.36
2023-07-19T11:51:22.484Z,43.45
2023-07-19T11:53:50.857Z,44.18
2023-07-19T11:56:20.935Z,43.19
2023-07-19T11:58:49.387Z,44.13
2023-07-19T12:01:20.448Z,45.31
2023-07-19T12:03:50.451Z,45.96
2023-07-19T12:06:18.764Z,46.42
2023-07-19T12:08:47.567Z,46.85
2023-07-19T12:11:15.944Z,46.57
2023-07-19T12:13:44.089Z,46.28
2023-07-19T12:16:12.236Z,45.44
2023-07-19T12:18:40.548Z,46.64
2023-07-19T12:21:10.127Z,46.80
2023-07-19T12:23:41.200Z,47.36
2023-07-19T12:26:10.624Z,48.67
2023-07-19T12:28:38.985Z,48.57
2023-07-19T12:31:09.373Z,48.54
2023-07-19T12:33:39.172Z,48.68
2023-07-19T12:36:10.646Z,48.69
2023-07-19T12:38:39.093Z,48.23
2023-07-19T12:41:07.292Z,48.59
2023-07-19T12:43:37.515Z,48.42
2023-07-19T12:46:06.282Z,48.72
2023-07-19T12:48:35.156Z,48.08
2023-07-19T12:51:05.606Z,48.35
2023-07-19T12:53:38.414Z,48.31
2023-07-19T12:56:07.970Z,48.99
2023-07-19T12:58:36.187Z,49.21
2023-07-19T13:01:04.450Z,48.55
2023-07-19T13:03:32.714Z,48.61
2023-07-19T13:06:01.039Z,46.91
2023-07-19T13:08:31.006Z,45.57
2023-07-19T13:11:00.702Z,46.23
2023-07-19T13:13:28.791Z,47.10
2023-07-19T13:15:56.921Z,47.09
2023-07-19T13:18:25.042Z,47.79
2023-07-19T13:20:54.324Z,47.16
2023-07-19T13:23:22.896Z,48.20
2023-07-19T13:25:51.077Z,47.46
2023-07-19T13:28:20.606Z,47.99
2023-07-19T13:30:50.307Z,48.47
2023-07-19T13:33:18.686Z,48.04
2023-07-19T13:38:18.424Z,47.90
2023-07-19T13:40:52.302Z,48.65
2023-07-19T13:43:21.873Z,49.42
2023-07-19T13:45:50.217Z,49.74
2023-07-19T13:48:18.428Z,49.56
2023-07-19T13:50:46.967Z,49.40
2023-07-19T13:53:15.232Z,49.39
2023-07-19T13:55:44.290Z,49.27
2023-07-19T13:58:14.402Z,49.38
2023-07-19T14:00:44.059Z,49.33
2023-07-19T14:03:12.629Z,48.23
2023-07-19T14:05:41.073Z,48.57
2023-07-19T14:08:10.168Z,49.56
2023-07-19T14:10:38.539Z,49.82
2023-07-19T14:13:06.925Z,49.76
2023-07-19T14:15:35.229Z,49.52
2023-07-19T14:18:05.870Z,49.03
2023-07-19T14:20:34.057Z,48.53
2023-07-19T14:23:02.333Z,48.15
2023-07-19T14:25:30.576Z,46.91
2023-07-19T14:27:58.986Z,46.25
2023-07-19T14:30:27.336Z,44.08
2023-07-19T14:32:55.669Z,44.95
2023-07-19T14:35:25.450Z,44.67
2023-07-19T14:37:53.705Z,45.56
2023-07-19T14:40:22.014Z,45.66
2023-07-19T14:42:52.476Z,45.66
2023-07-19T14:45:21.364Z,46.22
2023-07-19T14:47:49.772Z,46.83
2023-07-19T14:50:18.041Z,46.68
2023-07-19T14:52:51.109Z,46.13
2023-07-19T14:55:19.987Z,45.87
2023-07-19T14:57:48.462Z,45.56
2023-07-19T15:00:17.522Z,46.42
2023-07-19T15:02:59.228Z,45.20
2023-07-19T15:05:28.403Z,45.79
2023-07-19T15:07:58.022Z,46.61
2023-07-19T15:10:26.356Z,46.90
2023-07-19T15:12:54.677Z,46.52
2023-07-19T15:15:23.057Z,47.40
2023-07-19T15:17:51.646Z,48.40
2023-07-19T15:20:20.077Z,47.67
2023-07-19T15:22:48.484Z,48.10
2023-07-19T15:25:24.887Z,47.55
2023-07-19T15:27:53.009Z,47.84
2023-07-19T15:30:21.232Z,48.69
2023-07-19T15:32:49.547Z,49.26
2023-07-19T15:35:18.010Z,49.89
2023-07-19T15:37:46.228Z,50.60
2023-07-19T15:40:14.980Z,50.33
2023-07-19T15:42:44.806Z,50.05
2023-07-19T15:45:13.518Z,49.98
2023-07-19T15:47:41.884Z,51.07
2023-07-19T15:50:10.960Z,51.87
2023-07-19T15:52:42.326Z,51.53
2023-07-19T15:55:11.158Z,51.72
2023-07-19T15:57:39.373Z,51.75
2023-07-19T16:00:11.321Z,52.00
2023-07-19T16:02:39.719Z,52.85
2023-07-19T16:05:08.524Z,51.76
2023-07-19T16:07:36.760Z,51.96
2023-07-19T16:10:05.482Z,52.36
2023-07-19T16:12:33.859Z,52.42
2023-07-19T16:15:02.110Z,53.17
2023-07-19T16:17:32.026Z,53.20
2023-07-19T16:20:00.579Z,52.61
2023-07-19T16:22:29.079Z,52.75
2023-07-19T16:24:57.484Z,51.68
2023-07-19T16:27:25.776Z,51.81
2023-07-19T16:29:54.386Z,51.72
2023-07-19T16:32:22.716Z,51.20
2023-07-19T16:34:52.622Z,51.40
2023-07-19T16:37:20.852Z,51.83
2023-07-19T16:39:49.100Z,52.27
2023-07-19T16:42:17.339Z,53.00
2023-07-19T16:44:45.569Z,51.90
2023-07-19T16:47:13.857Z,51.90
2023-07-19T16:49:42.119Z,52.46
2023-07-19T16:52:13.443Z,52.14
2023-07-19T16:54:42.658Z,51.74
2023-07-19T16:57:11.935Z,51.97
2023-07-19T16:59:40.851Z,52.22
2023-07-19T17:02:11.869Z,51.65
2023-07-19T17:04:40.095Z,51.75
2023-07-19T17:07:08.397Z,51.79
2023-07-19T17:09:38.066Z,52.18
2023-07-19T17:12:07.185Z,51.29
2023-07-19T17:14:35.464Z,51.67
2023-07-19T17:17:11.848Z,51.88
2023-07-19T17:19:42.474Z,51.84
2023-07-19T17:22:10.973Z,51.64
2023-07-19T17:24:40.647Z,51.54
2023-07-19T17:27:09.019Z,51.67
2023-07-19T17:29:37.414Z,51.65
2023-07-19T17:32:06.570Z,52.22
2023-07-19T17:34:34.954Z,52.90
2023-07-19T17:37:03.396Z,53.36
2023-07-19T17:39:31.604Z,53.41
2023-07-19T17:42:01.310Z,53.80
2023-07-19T17:44:30.446Z,53.71
2023-07-19T17:46:58.664Z,53.49
2023-07-19T17:49:27.491Z,53.65
2023-07-19T17:51:57.457Z,53.88
2023-07-19T17:54:25.811Z,53.98
2023-07-19T17:56:54.450Z,54.05
2023-07-19T17:59:24.195Z,54.75
2023-07-19T18:01:52.647Z,55.05
2023-07-19T18:04:20.895Z,55.14
2023-07-19T18:06:50.433Z,55.28
2023-07-19T18:09:18.594Z,54.93
2023-07-19T18:11:46.858Z,55.60
2023-07-19T18:14:14.990Z,55.81
2023-07-19T18:16:45.371Z,55.74
2023-07-19T18:19:13.612Z,56.30
2023-07-19T18:21:50.518Z,56.15
2023-07-19T18:24:32.096Z,56.31
2023-07-19T18:27:01.072Z,56.24
2023-07-19T18:29:29.456Z,56.21
2023-07-19T18:31:59.095Z,56.54
2023-07-19T18:34:27.293Z,57.01
2023-07-19T18:36:55.414Z,57.31
2023-07-19T18:39:23.626Z,57.32
2023-07-19T18:41:51.781Z,57.20
2023-07-19T18:44:19.957Z,57.37
2023-07-19T18:46:48.204Z,57.78
2023-07-19T18:49:17.995Z,57.46
2023-07-19T18:51:46.099Z,57.40
2023-07-19T18:54:14.250Z,57.14
2023-07-19T18:56:42.369Z,56.97
2023-07-19T18:59:10.617Z,57.19
2023-07-19T19:01:38.955Z,57.15
2023-07-19T19:04:07.268Z,57.51
2023-07-19T19:06:37.236Z,57.56
2023-07-19T19:09:08.763Z,57.77
2023-07-19T19:11:37.041Z,57.97
2023-07-19T19:14:06.168Z,57.96
2023-07-19T19:16:35.381Z,58.42
2023-07-19T19:19:04.493Z,58.44
2023-07-19T19:21:32.738Z,58.86
2023-07-19T19:24:03.035Z,59.43
2023-07-19T19:26:31.240Z,59.44
2023-07-19T19:28:59.333Z,59.89
2023-07-19T19:31:27.507Z,60.14
2023-07-19T19:33:55.645Z,60.03
2023-07-19T19:36:26.733Z,60.59
2023-07-19T19:38:54.947Z,60.68
2023-07-19T19:41:24.583Z,60.83
2023-07-19T19:43:52.977Z,60.95
2023-07-19T19:46:21.167Z,61.11
2023-07-19T19:48:49.315Z,61.39
2023-07-19T19:51:17.497Z,61.46
2023-07-19T19:53:45.594Z,61.55
2023-07-19T19:58:47.318Z,62.03
2023-07-19T20:01:15.806Z,62.37
2023-07-19T20:03:44.040Z,62.55
2023-07-19T20:06:12.240Z,62.85
2023-07-19T20:08:41.953Z,62.76
2023-07-19T20:11:12.660Z,63.01
2023-07-19T20:13:41.057Z,63.17
2023-07-19T20:16:10.754Z,63.37
2023-07-19T20:21:10.084Z,63.63
2023-07-19T20:23:38.257Z,64.06
2023-07-19T20:26:14.092Z,64.17
2023-07-19T20:28:45.596Z,64.44
2023-07-19T20:41:37.828Z,65.40
2023-07-19T20:44:06.279Z,65.65
2023-07-19T20:49:14.048Z,65.99
2023-07-19T20:51:44.970Z,66.21
2023-07-19T20:54:15.077Z,66.32
2023-07-19T20:56:43.794Z,66.32
2023-07-19T20:59:12.070Z,66.48
2023-07-19T21:01:41.861Z,66.39
2023-07-19T21:04:10.027Z,66.66
2023-07-19T21:06:38.355Z,66.42
2023-07-19T21:09:09.605Z,66.39
2023-07-19T21:11:39.108Z,66.61
2023-07-19T21:14:07.355Z,66.42
2023-07-19T21:16:35.871Z,66.53
2023-07-19T21:19:05.890Z,66.71
2023-07-19T21:21:34.114Z,66.71
2023-07-19T21:24:04.066Z,66.64
2023-07-19T21:26:34.202Z,66.77
2023-07-19T21:29:02.334Z,66.90
2023-07-19T21:31:42.172Z,66.69
2023-07-19T21:34:11.855Z,66.80
2023-07-19T21:36:39.954Z,66.79
2023-07-19T21:39:08.167Z,67.15
2023-07-19T21:41:36.260Z,67.03
2023-07-19T21:44:06.738Z,67.16
2023-07-19T21:46:35.141Z,67.12
2023-07-19T21:49:06.085Z,67.20
2023-07-19T21:51:35.859Z,66.97
2023-07-19T21:54:04.082Z,66.87
2023-07-19T21:56:32.210Z,67.14
2023-07-19T21:59:00.414Z,67.11
2023-07-19T22:01:28.743Z,67.21
2023-07-19T22:03:57.272Z,67.35
2023-07-19T22:06:25.890Z,67.27
2023-07-19T22:08:56.312Z,67.29
2023-07-19T22:11:24.779Z,67.28
2023-07-19T22:14:09.115Z,67.22
2023-07-19T22:16:49.968Z,67.49
2023-07-19T22:19:18.544Z,67.47
2023-07-19T22:21:52.824Z,67.42
2023-07-19T22:24:22.676Z,67.44
2023-07-19T22:29:46.774Z,67.41
2023-07-19T22:32:15.046Z,67.54
2023-07-19T22:34:43.210Z,67.28
2023-07-19T22:37:17.216Z,67.21
2023-07-19T22:39:47.173Z,67.42
2023-07-19T22:42:21.486Z,67.30
2023-07-19T22:45:10.261Z,67.56
2023-07-19T22:47:50.692Z,67.70
2023-07-19T22:50:33.818Z,67.79
2023-07-19T22:53:36.347Z,67.79
2023-07-19T22:56:37.554Z,67.96
2023-07-19T22:59:44.490Z,68.26
2023-07-19T23:02:16.535Z,68.15
2023-07-19T23:04:53.791Z,68.09
2023-07-19T23:07:56.194Z,67.80
2023-07-19T23:11:01.208Z,67.95
2023-07-19T23:13:31.045Z,67.91
2023-07-19T23:16:08.589Z,67.80
2023-07-19T23:18:54.114Z,67.79
2023-07-19T23:21:22.286Z,67.80
2023-07-19T23:24:21.526Z,67.76
2023-07-19T23:26:49.771Z,67.48
2023-07-19T23:29:28.265Z,67.86
2023-07-19T23:32:30.160Z,67.69
2023-07-19T23:34:58.383Z,68.18
2023-07-19T23:37:38.509Z,67.97
2023-07-19T23:40:08.414Z,68.22
2023-07-19T23:42:47.818Z,68.35
2023-07-19T23:48:12.623Z,67.91
2023-07-19T23:50:59.336Z,68.12
2023-07-19T23:54:02.087Z,68.31
2023-07-19T23:56:30.230Z,68.34
2023-07-19T23:59:10.700Z,68.11
